sensor_id;sensor_type;location;lat;lon;timestamp;P1;durP1;ratioP1;P2;durP2;ratioP2
6821;SDS011;3449;48.728;8.968;2023-04-06T00:00:32;12.93;;;7.40;;
6821;SDS011;3449;48.728;8.968;2023-04-06T00:02:59;16.60;;;7.30;;
6821;SDS011;3449;48.728;8.968;2023-04-06T00:05:26;15.87;;;7.23;;
6821;SDS011;3449;48.728;8.968;2023-04-06T00:07:55;16.30;;;7.17;;
6821;SDS011;3449;48.728;8.968;2023-04-06T00:10:23;11.03;;;6.67;;
6821;SDS011;3449;48.728;8.968;2023-04-06T00:12:51;12.10;;;6.70;;
6821;SDS011;3449;48.728;8.968;2023-04-06T00:15:18;11.30;;;6.97;;
6821;SDS011;3449;48.728;8.968;2023-04-06T00:17:46;15.80;;;7.20;;
6821;SDS011;3449;48.728;8.968;2023-04-06T00:20:13;11.27;;;7.00;;
6821;SDS011;3449;48.728;8.968;2023-04-06T00:22:39;9.80;;;7.03;;
6821;SDS011;3449;48.728;8.968;2023-04-06T00:25:07;12.47;;;6.80;;
6821;SDS011;3449;48.728;8.968;2023-04-06T00:27:35;13.77;;;7.30;;
6821;SDS011;3449;48.728;8.968;2023-04-06T00:30:03;13.03;;;7.27;;
6821;SDS011;3449;48.728;8.968;2023-04-06T00:32:31;12.60;;;7.47;;
6821;SDS011;3449;48.728;8.968;2023-04-06T00:34:58;14.77;;;7.90;;
6821;SDS011;3449;48.728;8.968;2023-04-06T00:37:25;15.53;;;8.10;;
6821;SDS011;3449;48.728;8.968;2023-04-06T00:39:52;14.60;;;7.73;;
6821;SDS011;3449;48.728;8.968;2023-04-06T00:42:19;13.40;;;6.20;;
6821;SDS011;3449;48.728;8.968;2023-04-06T00:44:51;13.40;;;6.80;;
6821;SDS011;3449;48.728;8.968;2023-04-06T00:47:21;13.80;;;6.90;;
6821;SDS011;3449;48.728;8.968;2023-04-06T00:49:50;15.27;;;8.27;;
6821;SDS011;3449;48.728;8.968;2023-04-06T00:52:17;11.17;;;6.30;;
6821;SDS011;3449;48.728;8.968;2023-04-06T00:54:45;11.77;;;6.97;;
6821;SDS011;3449;48.728;8.968;2023-04-06T00:57:12;17.33;;;7.23;;
6821;SDS011;3449;48.728;8.968;2023-04-06T00:59:40;15.97;;;7.07;;
6821;SDS011;3449;48.728;8.968;2023-04-06T01:02:07;17.30;;;6.80;;
6821;SDS011;3449;48.728;8.968;2023-04-06T01:04:36;17.83;;;8.17;;
6821;SDS011;3449;48.728;8.968;2023-04-06T01:07:03;10.97;;;6.60;;
6821;SDS011;3449;48.728;8.968;2023-04-06T01:09:30;16.03;;;8.53;;
6821;SDS011;3449;48.728;8.968;2023-04-06T01:11:57;13.80;;;8.37;;
6821;SDS011;3449;48.728;8.968;2023-04-06T01:14:25;15.67;;;6.77;;
6821;SDS011;3449;48.728;8.968;2023-04-06T01:16:53;21.83;;;7.80;;
6821;SDS011;3449;48.728;8.968;2023-04-06T01:19:20;14.67;;;7.47;;
6821;SDS011;3449;48.728;8.968;2023-04-06T01:21:50;12.80;;;6.83;;
6821;SDS011;3449;48.728;8.968;2023-04-06T01:24:19;15.03;;;8.43;;
6821;SDS011;3449;48.728;8.968;2023-04-06T01:26:46;11.63;;;7.00;;
6821;SDS011;3449;48.728;8.968;2023-04-06T01:29:13;14.93;;;7.50;;
6821;SDS011;3449;48.728;8.968;2023-04-06T01:31:40;10.73;;;6.63;;
6821;SDS011;3449;48.728;8.968;2023-04-06T01:34:07;11.83;;;6.67;;
6821;SDS011;3449;48.728;8.968;2023-04-06T01:36:34;12.40;;;6.87;;
6821;SDS011;3449;48.728;8.968;2023-04-06T01:39:01;10.93;;;7.10;;
6821;SDS011;3449;48.728;8.968;2023-04-06T01:41:30;10.87;;;6.63;;
6821;SDS011;3449;48.728;8.968;2023-04-06T01:43:57;14.03;;;6.53;;
6821;SDS011;3449;48.728;8.968;2023-04-06T01:46:24;11.03;;;6.93;;
6821;SDS011;3449;48.728;8.968;2023-04-06T01:48:51;12.60;;;6.23;;
6821;SDS011;3449;48.728;8.968;2023-04-06T01:51:18;15.10;;;7.27;;
6821;SDS011;3449;48.728;8.968;2023-04-06T01:53:45;12.90;;;6.03;;
6821;SDS011;3449;48.728;8.968;2023-04-06T01:56:13;11.23;;;6.30;;
6821;SDS011;3449;48.728;8.968;2023-04-06T01:58:41;13.70;;;6.37;;
6821;SDS011;3449;48.728;8.968;2023-04-06T02:01:08;11.70;;;6.90;;
6821;SDS011;3449;48.728;8.968;2023-04-06T02:03:35;13.20;;;7.13;;
6821;SDS011;3449;48.728;8.968;2023-04-06T02:06:02;14.90;;;7.47;;
6821;SDS011;3449;48.728;8.968;2023-04-06T02:08:30;14.50;;;7.83;;
6821;SDS011;3449;48.728;8.968;2023-04-06T02:10:57;15.43;;;8.27;;
6821;SDS011;3449;48.728;8.968;2023-04-06T02:13:24;38.10;;;15.50;;
6821;SDS011;3449;48.728;8.968;2023-04-06T02:15:52;29.73;;;14.40;;
6821;SDS011;3449;48.728;8.968;2023-04-06T02:18:19;40.17;;;20.17;;
6821;SDS011;3449;48.728;8.968;2023-04-06T02:20:46;75.07;;;29.83;;
6821;SDS011;3449;48.728;8.968;2023-04-06T02:23:13;78.40;;;31.07;;
6821;SDS011;3449;48.728;8.968;2023-04-06T02:25:40;61.83;;;25.90;;
6821;SDS011;3449;48.728;8.968;2023-04-06T02:28:07;53.27;;;24.03;;
6821;SDS011;3449;48.728;8.968;2023-04-06T02:30:34;37.03;;;18.70;;
6821;SDS011;3449;48.728;8.968;2023-04-06T02:33:02;34.63;;;18.50;;
6821;SDS011;3449;48.728;8.968;2023-04-06T02:35:29;29.83;;;16.23;;
6821;SDS011;3449;48.728;8.968;2023-04-06T02:37:57;28.27;;;16.20;;
6821;SDS011;3449;48.728;8.968;2023-04-06T02:40:24;26.50;;;14.93;;
6821;SDS011;3449;48.728;8.968;2023-04-06T02:42:51;18.40;;;9.73;;
6821;SDS011;3449;48.728;8.968;2023-04-06T02:45:18;19.87;;;9.00;;
6821;SDS011;3449;48.728;8.968;2023-04-06T02:47:45;14.10;;;7.80;;
6821;SDS011;3449;48.728;8.968;2023-04-06T02:50:13;20.20;;;7.00;;
6821;SDS011;3449;48.728;8.968;2023-04-06T02:52:41;11.10;;;6.80;;
6821;SDS011;3449;48.728;8.968;2023-04-06T02:55:08;14.90;;;6.67;;
6821;SDS011;3449;48.728;8.968;2023-04-06T02:57:35;13.27;;;6.03;;
6821;SDS011;3449;48.728;8.968;2023-04-06T03:00:02;14.57;;;7.40;;
6821;SDS011;3449;48.728;8.968;2023-04-06T03:02:30;15.77;;;6.87;;
6821;SDS011;3449;48.728;8.968;2023-04-06T03:04:56;15.87;;;6.70;;
6821;SDS011;3449;48.728;8.968;2023-04-06T03:07:25;17.43;;;7.30;;
6821;SDS011;3449;48.728;8.968;2023-04-06T03:09:52;13.27;;;7.63;;
6821;SDS011;3449;48.728;8.968;2023-04-06T03:12:19;14.27;;;7.37;;
6821;SDS011;3449;48.728;8.968;2023-04-06T03:14:46;11.40;;;6.90;;
6821;SDS011;3449;48.728;8.968;2023-04-06T03:17:13;23.73;;;8.07;;
6821;SDS011;3449;48.728;8.968;2023-04-06T03:19:40;12.33;;;7.77;;
6821;SDS011;3449;48.728;8.968;2023-04-06T03:22:07;18.30;;;7.97;;
6821;SDS011;3449;48.728;8.968;2023-04-06T03:24:36;10.20;;;6.60;;
6821;SDS011;3449;48.728;8.968;2023-04-06T03:27:03;11.93;;;6.80;;
6821;SDS011;3449;48.728;8.968;2023-04-06T03:29:31;10.00;;;6.10;;
6821;SDS011;3449;48.728;8.968;2023-04-06T03:31:58;13.17;;;6.97;;
6821;SDS011;3449;48.728;8.968;2023-04-06T03:34:25;15.33;;;7.40;;
6821;SDS011;3449;48.728;8.968;2023-04-06T03:36:52;13.37;;;7.30;;
6821;SDS011;3449;48.728;8.968;2023-04-06T03:39:19;9.83;;;6.70;;
6821;SDS011;3449;48.728;8.968;2023-04-06T03:41:47;13.43;;;6.60;;
6821;SDS011;3449;48.728;8.968;2023-04-06T03:44:14;9.63;;;6.40;;
6821;SDS011;3449;48.728;8.968;2023-04-06T03:46:41;12.13;;;6.83;;
6821;SDS011;3449;48.728;8.968;2023-04-06T03:49:08;10.83;;;6.57;;
6821;SDS011;3449;48.728;8.968;2023-04-06T03:51:35;14.10;;;7.60;;
6821;SDS011;3449;48.728;8.968;2023-04-06T03:54:03;10.40;;;6.77;;
6821;SDS011;3449;48.728;8.968;2023-04-06T03:56:30;12.43;;;7.00;;
6821;SDS011;3449;48.728;8.968;2023-04-06T03:58:58;12.10;;;7.57;;
6821;SDS011;3449;48.728;8.968;2023-04-06T04:01:26;18.77;;;7.40;;
6821;SDS011;3449;48.728;8.968;2023-04-06T04:03:53;13.30;;;7.40;;
6821;SDS011;3449;48.728;8.968;2023-04-06T04:06:20;16.27;;;6.93;;
6821;SDS011;3449;48.728;8.968;2023-04-06T04:08:47;15.03;;;5.53;;
6821;SDS011;3449;48.728;8.968;2023-04-06T04:11:15;11.67;;;6.43;;
6821;SDS011;3449;48.728;8.968;2023-04-06T04:13:42;11.67;;;6.53;;
6821;SDS011;3449;48.728;8.968;2023-04-06T04:16:10;14.00;;;6.90;;
6821;SDS011;3449;48.728;8.968;2023-04-06T04:18:37;12.00;;;6.60;;
6821;SDS011;3449;48.728;8.968;2023-04-06T04:21:04;18.97;;;6.97;;
6821;SDS011;3449;48.728;8.968;2023-04-06T04:23:31;17.20;;;7.77;;
6821;SDS011;3449;48.728;8.968;2023-04-06T04:25:58;15.03;;;7.67;;
6821;SDS011;3449;48.728;8.968;2023-04-06T04:28:25;13.67;;;8.10;;
6821;SDS011;3449;48.728;8.968;2023-04-06T04:30:52;14.23;;;7.50;;
6821;SDS011;3449;48.728;8.968;2023-04-06T04:33:20;9.33;;;6.60;;
6821;SDS011;3449;48.728;8.968;2023-04-06T04:35:47;16.93;;;6.80;;
6821;SDS011;3449;48.728;8.968;2023-04-06T04:38:14;12.20;;;6.37;;
6821;SDS011;3449;48.728;8.968;2023-04-06T04:40:41;18.90;;;7.67;;
6821;SDS011;3449;48.728;8.968;2023-04-06T04:43:08;22.23;;;7.37;;
6821;SDS011;3449;48.728;8.968;2023-04-06T04:45:35;13.13;;;7.20;;
6821;SDS011;3449;48.728;8.968;2023-04-06T04:48:02;16.73;;;6.97;;
6821;SDS011;3449;48.728;8.968;2023-04-06T04:50:31;13.07;;;7.23;;
6821;SDS011;3449;48.728;8.968;2023-04-06T04:52:58;16.13;;;8.00;;
6821;SDS011;3449;48.728;8.968;2023-04-06T04:55:25;11.23;;;7.13;;
6821;SDS011;3449;48.728;8.968;2023-04-06T04:57:52;17.17;;;8.40;;
6821;SDS011;3449;48.728;8.968;2023-04-06T05:00:19;13.43;;;6.67;;
6821;SDS011;3449;48.728;8.968;2023-04-06T05:02:46;13.40;;;6.87;;
6821;SDS011;3449;48.728;8.968;2023-04-06T05:05:13;15.00;;;7.17;;
6821;SDS011;3449;48.728;8.968;2023-04-06T05:07:42;13.57;;;6.90;;
6821;SDS011;3449;48.728;8.968;2023-04-06T05:10:09;13.17;;;7.30;;
6821;SDS011;3449;48.728;8.968;2023-04-06T05:12:36;10.70;;;6.67;;
6821;SDS011;3449;48.728;8.968;2023-04-06T05:15:04;12.80;;;6.97;;
6821;SDS011;3449;48.728;8.968;2023-04-06T05:17:32;17.90;;;6.97;;
6821;SDS011;3449;48.728;8.968;2023-04-06T05:19:59;15.40;;;7.60;;
6821;SDS011;3449;48.728;8.968;2023-04-06T05:22:27;14.80;;;6.90;;
6821;SDS011;3449;48.728;8.968;2023-04-06T05:24:55;14.17;;;6.30;;
6821;SDS011;3449;48.728;8.968;2023-04-06T05:27:22;14.80;;;5.47;;
6821;SDS011;3449;48.728;8.968;2023-04-06T05:29:49;16.27;;;6.57;;
6821;SDS011;3449;48.728;8.968;2023-04-06T05:32:17;22.70;;;7.40;;
6821;SDS011;3449;48.728;8.968;2023-04-06T05:34:47;13.10;;;6.27;;
6821;SDS011;3449;48.728;8.968;2023-04-06T05:37:14;10.77;;;6.83;;
6821;SDS011;3449;48.728;8.968;2023-04-06T05:39:41;15.80;;;6.67;;
6821;SDS011;3449;48.728;8.968;2023-04-06T05:42:09;10.80;;;6.17;;
6821;SDS011;3449;48.728;8.968;2023-04-06T05:44:37;14.97;;;7.20;;
6821;SDS011;3449;48.728;8.968;2023-04-06T05:47:04;15.43;;;6.47;;
6821;SDS011;3449;48.728;8.968;2023-04-06T05:49:31;11.27;;;7.00;;
6821;SDS011;3449;48.728;8.968;2023-04-06T05:51:58;11.13;;;6.43;;
6821;SDS011;3449;48.728;8.968;2023-04-06T05:54:25;10.67;;;6.73;;
6821;SDS011;3449;48.728;8.968;2023-04-06T05:56:52;12.40;;;6.33;;
6821;SDS011;3449;48.728;8.968;2023-04-06T05:59:20;11.23;;;7.20;;
6821;SDS011;3449;48.728;8.968;2023-04-06T06:01:48;15.47;;;8.70;;
6821;SDS011;3449;48.728;8.968;2023-04-06T06:04:15;12.93;;;7.13;;
6821;SDS011;3449;48.728;8.968;2023-04-06T06:06:42;17.03;;;8.23;;
6821;SDS011;3449;48.728;8.968;2023-04-06T06:09:09;17.27;;;7.50;;
6821;SDS011;3449;48.728;8.968;2023-04-06T06:11:36;16.90;;;7.60;;
6821;SDS011;3449;48.728;8.968;2023-04-06T06:14:03;13.00;;;7.20;;
6821;SDS011;3449;48.728;8.968;2023-04-06T06:16:32;21.90;;;7.27;;
6821;SDS011;3449;48.728;8.968;2023-04-06T06:18:59;19.33;;;8.13;;
6821;SDS011;3449;48.728;8.968;2023-04-06T06:21:25;22.30;;;7.00;;
6821;SDS011;3449;48.728;8.968;2023-04-06T06:23:52;21.10;;;7.27;;
6821;SDS011;3449;48.728;8.968;2023-04-06T06:26:19;12.67;;;6.97;;
6821;SDS011;3449;48.728;8.968;2023-04-06T06:28:46;26.33;;;8.00;;
6821;SDS011;3449;48.728;8.968;2023-04-06T06:31:14;14.23;;;7.20;;
6821;SDS011;3449;48.728;8.968;2023-04-06T06:33:42;20.70;;;8.60;;
6821;SDS011;3449;48.728;8.968;2023-04-06T06:36:09;17.67;;;7.80;;
6821;SDS011;3449;48.728;8.968;2023-04-06T06:38:36;23.07;;;7.57;;
6821;SDS011;3449;48.728;8.968;2023-04-06T06:41:04;11.63;;;6.17;;
6821;SDS011;3449;48.728;8.968;2023-04-06T06:43:31;12.50;;;7.80;;
6821;SDS011;3449;48.728;8.968;2023-04-06T06:45:58;17.63;;;7.73;;
6821;SDS011;3449;48.728;8.968;2023-04-06T06:48:25;13.40;;;7.00;;
6821;SDS011;3449;48.728;8.968;2023-04-06T06:50:53;12.73;;;7.10;;
6821;SDS011;3449;48.728;8.968;2023-04-06T06:53:20;13.87;;;7.50;;
6821;SDS011;3449;48.728;8.968;2023-04-06T06:55:47;16.33;;;7.13;;
6821;SDS011;3449;48.728;8.968;2023-04-06T06:58:15;13.43;;;7.30;;
6821;SDS011;3449;48.728;8.968;2023-04-06T07:00:44;15.50;;;7.30;;
6821;SDS011;3449;48.728;8.968;2023-04-06T07:03:11;14.77;;;7.20;;
6821;SDS011;3449;48.728;8.968;2023-04-06T07:05:38;11.43;;;7.63;;
6821;SDS011;3449;48.728;8.968;2023-04-06T07:08:06;18.37;;;7.57;;
6821;SDS011;3449;48.728;8.968;2023-04-06T07:10:33;18.40;;;7.87;;
6821;SDS011;3449;48.728;8.968;2023-04-06T07:13:00;14.77;;;6.80;;
6821;SDS011;3449;48.728;8.968;2023-04-06T07:15:28;9.57;;;6.03;;
6821;SDS011;3449;48.728;8.968;2023-04-06T07:17:55;16.50;;;8.13;;
6821;SDS011;3449;48.728;8.968;2023-04-06T07:20:22;10.00;;;6.90;;
6821;SDS011;3449;48.728;8.968;2023-04-06T07:22:49;12.90;;;7.67;;
6821;SDS011;3449;48.728;8.968;2023-04-06T07:25:17;13.40;;;7.93;;
6821;SDS011;3449;48.728;8.968;2023-04-06T07:27:44;14.87;;;7.53;;
6821;SDS011;3449;48.728;8.968;2023-04-06T07:30:11;11.40;;;8.07;;
6821;SDS011;3449;48.728;8.968;2023-04-06T07:32:38;11.43;;;7.00;;
6821;SDS011;3449;48.728;8.968;2023-04-06T07:35:05;10.47;;;6.47;;
6821;SDS011;3449;48.728;8.968;2023-04-06T07:37:32;9.70;;;7.40;;
6821;SDS011;3449;48.728;8.968;2023-04-06T07:40:00;11.67;;;7.20;;
6821;SDS011;3449;48.728;8.968;2023-04-06T07:42:28;17.60;;;8.07;;
6821;SDS011;3449;48.728;8.968;2023-04-06T07:44:55;13.73;;;6.57;;
6821;SDS011;3449;48.728;8.968;2023-04-06T07:47:22;12.63;;;7.30;;
6821;SDS011;3449;48.728;8.968;2023-04-06T07:49:51;12.00;;;7.10;;
6821;SDS011;3449;48.728;8.968;2023-04-06T07:52:20;10.07;;;6.90;;
6821;SDS011;3449;48.728;8.968;2023-04-06T07:54:47;12.93;;;7.03;;
6821;SDS011;3449;48.728;8.968;2023-04-06T07:57:14;10.10;;;6.97;;
6821;SDS011;3449;48.728;8.968;2023-04-06T07:59:43;14.50;;;6.67;;
6821;SDS011;3449;48.728;8.968;2023-04-06T08:02:10;13.80;;;7.93;;
6821;SDS011;3449;48.728;8.968;2023-04-06T08:04:37;18.40;;;8.10;;
6821;SDS011;3449;48.728;8.968;2023-04-06T08:07:04;12.33;;;6.90;;
6821;SDS011;3449;48.728;8.968;2023-04-06T08:09:31;13.07;;;7.40;;
6821;SDS011;3449;48.728;8.968;2023-04-06T08:11:58;12.70;;;7.13;;
6821;SDS011;3449;48.728;8.968;2023-04-06T08:14:25;11.80;;;7.00;;
6821;SDS011;3449;48.728;8.968;2023-04-06T08:16:54;15.13;;;7.17;;
6821;SDS011;3449;48.728;8.968;2023-04-06T08:19:21;10.13;;;6.43;;
6821;SDS011;3449;48.728;8.968;2023-04-06T08:21:48;14.93;;;7.30;;
6821;SDS011;3449;48.728;8.968;2023-04-06T08:24:16;10.90;;;6.60;;
6821;SDS011;3449;48.728;8.968;2023-04-06T08:26:43;16.53;;;7.23;;
6821;SDS011;3449;48.728;8.968;2023-04-06T08:29:10;12.40;;;7.53;;
6821;SDS011;3449;48.728;8.968;2023-04-06T08:31:37;12.37;;;6.50;;
6821;SDS011;3449;48.728;8.968;2023-04-06T08:34:05;12.73;;;7.27;;
6821;SDS011;3449;48.728;8.968;2023-04-06T08:36:33;10.33;;;6.10;;
6821;SDS011;3449;48.728;8.968;2023-04-06T08:39:00;9.90;;;6.13;;
6821;SDS011;3449;48.728;8.968;2023-04-06T08:41:27;12.17;;;6.87;;
6821;SDS011;3449;48.728;8.968;2023-04-06T08:43:56;8.97;;;5.90;;
6821;SDS011;3449;48.728;8.968;2023-04-06T08:46:25;9.60;;;5.97;;
6821;SDS011;3449;48.728;8.968;2023-04-06T08:48:55;7.13;;;5.73;;
6821;SDS011;3449;48.728;8.968;2023-04-06T08:51:24;9.97;;;6.30;;
6821;SDS011;3449;48.728;8.968;2023-04-06T08:53:52;9.20;;;6.10;;
6821;SDS011;3449;48.728;8.968;2023-04-06T08:56:21;10.30;;;6.40;;
6821;SDS011;3449;48.728;8.968;2023-04-06T08:58:48;10.87;;;7.07;;
6821;SDS011;3449;48.728;8.968;2023-04-06T09:01:17;11.53;;;6.23;;
6821;SDS011;3449;48.728;8.968;2023-04-06T09:03:46;12.40;;;7.07;;
6821;SDS011;3449;48.728;8.968;2023-04-06T09:06:15;12.60;;;6.87;;
6821;SDS011;3449;48.728;8.968;2023-04-06T09:08:44;9.93;;;6.07;;
6821;SDS011;3449;48.728;8.968;2023-04-06T09:11:11;9.20;;;6.20;;
6821;SDS011;3449;48.728;8.968;2023-04-06T09:13:45;10.90;;;6.30;;
6821;SDS011;3449;48.728;8.968;2023-04-06T09:16:12;15.33;;;7.20;;
6821;SDS011;3449;48.728;8.968;2023-04-06T09:18:40;9.90;;;6.63;;
6821;SDS011;3449;48.728;8.968;2023-04-06T09:21:07;14.27;;;7.37;;
6821;SDS011;3449;48.728;8.968;2023-04-06T09:23:35;10.30;;;6.87;;
6821;SDS011;3449;48.728;8.968;2023-04-06T09:26:10;9.43;;;6.33;;
6821;SDS011;3449;48.728;8.968;2023-04-06T09:28:45;11.43;;;6.50;;
6821;SDS011;3449;48.728;8.968;2023-04-06T09:31:14;17.23;;;7.20;;
6821;SDS011;3449;48.728;8.968;2023-04-06T09:33:43;11.43;;;6.63;;
6821;SDS011;3449;48.728;8.968;2023-04-06T09:36:11;13.50;;;7.10;;
6821;SDS011;3449;48.728;8.968;2023-04-06T09:38:51;8.40;;;5.93;;
6821;SDS011;3449;48.728;8.968;2023-04-06T09:41:24;16.60;;;7.30;;
6821;SDS011;3449;48.728;8.968;2023-04-06T09:43:52;12.60;;;6.47;;
6821;SDS011;3449;48.728;8.968;2023-04-06T09:46:30;8.33;;;5.00;;
6821;SDS011;3449;48.728;8.968;2023-04-06T09:49:00;6.00;;;4.50;;
6821;SDS011;3449;48.728;8.968;2023-04-06T09:51:29;8.03;;;5.60;;
6821;SDS011;3449;48.728;8.968;2023-04-06T09:53:59;10.73;;;5.33;;
6821;SDS011;3449;48.728;8.968;2023-04-06T09:56:31;12.60;;;5.80;;
6821;SDS011;3449;48.728;8.968;2023-04-06T09:59:08;15.67;;;6.27;;
6821;SDS011;3449;48.728;8.968;2023-04-06T10:01:40;8.40;;;5.03;;
6821;SDS011;3449;48.728;8.968;2023-04-06T10:04:14;7.33;;;5.33;;
6821;SDS011;3449;48.728;8.968;2023-04-06T10:06:47;13.10;;;5.97;;
6821;SDS011;3449;48.728;8.968;2023-04-06T10:09:17;8.13;;;5.00;;
6821;SDS011;3449;48.728;8.968;2023-04-06T10:11:49;8.50;;;5.70;;
6821;SDS011;3449;48.728;8.968;2023-04-06T10:14:16;7.90;;;5.53;;
6821;SDS011;3449;48.728;8.968;2023-04-06T10:16:43;6.00;;;5.00;;
6821;SDS011;3449;48.728;8.968;2023-04-06T10:19:13;9.60;;;4.90;;
6821;SDS011;3449;48.728;8.968;2023-04-06T10:21:50;8.17;;;5.33;;
6821;SDS011;3449;48.728;8.968;2023-04-06T10:24:21;7.83;;;5.63;;
6821;SDS011;3449;48.728;8.968;2023-04-06T10:26:57;8.33;;;5.10;;
6821;SDS011;3449;48.728;8.968;2023-04-06T10:29:25;13.50;;;5.50;;
6821;SDS011;3449;48.728;8.968;2023-04-06T10:31:52;9.80;;;4.90;;
6821;SDS011;3449;48.728;8.968;2023-04-06T10:34:20;8.73;;;5.03;;
6821;SDS011;3449;48.728;8.968;2023-04-06T10:36:47;8.63;;;6.10;;
6821;SDS011;3449;48.728;8.968;2023-04-06T10:39:14;8.50;;;5.00;;
6821;SDS011;3449;48.728;8.968;2023-04-06T10:41:52;7.77;;;5.13;;
6821;SDS011;3449;48.728;8.968;2023-04-06T10:44:21;8.60;;;5.30;;
6821;SDS011;3449;48.728;8.968;2023-04-06T10:46:55;7.47;;;5.20;;
6821;SDS011;3449;48.728;8.968;2023-04-06T10:49:22;8.17;;;5.93;;
6821;SDS011;3449;48.728;8.968;2023-04-06T10:51:51;11.73;;;4.60;;
6821;SDS011;3449;48.728;8.968;2023-04-06T10:54:20;9.00;;;5.17;;
6821;SDS011;3449;48.728;8.968;2023-04-06T10:56:48;6.80;;;4.80;;
6821;SDS011;3449;48.728;8.968;2023-04-06T10:59:18;8.43;;;5.07;;
6821;SDS011;3449;48.728;8.968;2023-04-06T11:01:47;7.77;;;5.10;;
6821;SDS011;3449;48.728;8.968;2023-04-06T11:04:15;8.87;;;5.10;;
6821;SDS011;3449;48.728;8.968;2023-04-06T11:06:45;10.07;;;5.37;;
6821;SDS011;3449;48.728;8.968;2023-04-06T11:09:22;10.77;;;5.23;;
6821;SDS011;3449;48.728;8.968;2023-04-06T11:11:51;9.73;;;5.53;;
6821;SDS011;3449;48.728;8.968;2023-04-06T11:14:19;7.67;;;5.17;;
6821;SDS011;3449;48.728;8.968;2023-04-06T11:16:47;6.20;;;4.67;;
6821;SDS011;3449;48.728;8.968;2023-04-06T11:19:15;6.50;;;4.80;;
6821;SDS011;3449;48.728;8.968;2023-04-06T11:21:43;8.93;;;4.87;;
6821;SDS011;3449;48.728;8.968;2023-04-06T11:24:13;4.97;;;4.13;;
6821;SDS011;3449;48.728;8.968;2023-04-06T11:26:42;6.50;;;4.20;;
6821;SDS011;3449;48.728;8.968;2023-04-06T11:29:10;7.73;;;4.87;;
6821;SDS011;3449;48.728;8.968;2023-04-06T11:31:40;7.63;;;5.77;;
6821;SDS011;3449;48.728;8.968;2023-04-06T11:34:10;5.63;;;4.33;;
6821;SDS011;3449;48.728;8.968;2023-04-06T11:36:42;6.47;;;4.80;;
6821;SDS011;3449;48.728;8.968;2023-04-06T11:39:09;10.33;;;4.97;;
6821;SDS011;3449;48.728;8.968;2023-04-06T11:41:37;5.60;;;4.53;;
6821;SDS011;3449;48.728;8.968;2023-04-06T11:44:04;6.57;;;4.30;;
6821;SDS011;3449;48.728;8.968;2023-04-06T11:46:32;4.43;;;4.00;;
6821;SDS011;3449;48.728;8.968;2023-04-06T11:48:59;5.40;;;4.40;;
6821;SDS011;3449;48.728;8.968;2023-04-06T11:51:28;11.73;;;4.80;;
6821;SDS011;3449;48.728;8.968;2023-04-06T11:53:55;10.00;;;4.73;;
6821;SDS011;3449;48.728;8.968;2023-04-06T11:56:26;8.43;;;5.30;;
6821;SDS011;3449;48.728;8.968;2023-04-06T11:58:54;5.90;;;4.70;;
6821;SDS011;3449;48.728;8.968;2023-04-06T12:01:22;8.27;;;5.07;;
6821;SDS011;3449;48.728;8.968;2023-04-06T12:03:51;7.00;;;4.80;;
6821;SDS011;3449;48.728;8.968;2023-04-06T12:06:18;6.57;;;5.10;;
6821;SDS011;3449;48.728;8.968;2023-04-06T12:08:47;6.53;;;4.53;;
6821;SDS011;3449;48.728;8.968;2023-04-06T12:11:14;7.97;;;4.83;;
6821;SDS011;3449;48.728;8.968;2023-04-06T12:13:41;5.70;;;4.17;;
6821;SDS011;3449;48.728;8.968;2023-04-06T12:16:08;8.33;;;4.67;;
6821;SDS011;3449;48.728;8.968;2023-04-06T12:18:35;5.63;;;4.40;;
6821;SDS011;3449;48.728;8.968;2023-04-06T12:21:02;5.50;;;4.50;;
6821;SDS011;3449;48.728;8.968;2023-04-06T12:23:30;6.87;;;5.07;;
6821;SDS011;3449;48.728;8.968;2023-04-06T12:25:58;7.07;;;4.57;;
6821;SDS011;3449;48.728;8.968;2023-04-06T12:28:26;8.03;;;4.63;;
6821;SDS011;3449;48.728;8.968;2023-04-06T12:30:53;5.77;;;5.17;;
6821;SDS011;3449;48.728;8.968;2023-04-06T12:33:21;7.00;;;5.40;;
6821;SDS011;3449;48.728;8.968;2023-04-06T12:35:47;8.93;;;5.57;;
6821;SDS011;3449;48.728;8.968;2023-04-06T12:38:15;5.20;;;3.90;;
6821;SDS011;3449;48.728;8.968;2023-04-06T12:40:42;7.53;;;4.00;;
6821;SDS011;3449;48.728;8.968;2023-04-06T12:43:10;5.37;;;3.57;;
6821;SDS011;3449;48.728;8.968;2023-04-06T12:45:38;5.03;;;4.07;;
6821;SDS011;3449;48.728;8.968;2023-04-06T12:48:06;5.63;;;4.47;;
6821;SDS011;3449;48.728;8.968;2023-04-06T12:50:33;8.70;;;4.70;;
6821;SDS011;3449;48.728;8.968;2023-04-06T12:53:00;6.13;;;3.80;;
6821;SDS011;3449;48.728;8.968;2023-04-06T12:55:29;5.53;;;4.20;;
6821;SDS011;3449;48.728;8.968;2023-04-06T12:57:59;6.17;;;4.40;;
6821;SDS011;3449;48.728;8.968;2023-04-06T13:00:27;9.23;;;4.23;;
6821;SDS011;3449;48.728;8.968;2023-04-06T13:02:55;8.93;;;5.20;;
6821;SDS011;3449;48.728;8.968;2023-04-06T13:05:22;6.77;;;4.50;;
6821;SDS011;3449;48.728;8.968;2023-04-06T13:07:49;8.53;;;4.70;;
6821;SDS011;3449;48.728;8.968;2023-04-06T13:10:16;8.20;;;4.80;;
6821;SDS011;3449;48.728;8.968;2023-04-06T13:12:43;6.20;;;4.57;;
6821;SDS011;3449;48.728;8.968;2023-04-06T13:15:10;5.70;;;4.60;;
6821;SDS011;3449;48.728;8.968;2023-04-06T13:17:39;9.50;;;4.00;;
6821;SDS011;3449;48.728;8.968;2023-04-06T13:20:06;5.37;;;4.20;;
6821;SDS011;3449;48.728;8.968;2023-04-06T13:22:33;5.73;;;3.70;;
6821;SDS011;3449;48.728;8.968;2023-04-06T13:25:00;6.00;;;4.73;;
6821;SDS011;3449;48.728;8.968;2023-04-06T13:27:28;7.43;;;4.10;;
6821;SDS011;3449;48.728;8.968;2023-04-06T13:29:58;7.37;;;4.70;;
6821;SDS011;3449;48.728;8.968;2023-04-06T13:32:26;6.00;;;4.63;;
6821;SDS011;3449;48.728;8.968;2023-04-06T13:34:55;5.07;;;4.27;;
6821;SDS011;3449;48.728;8.968;2023-04-06T13:37:23;4.70;;;3.93;;
6821;SDS011;3449;48.728;8.968;2023-04-06T13:39:50;7.37;;;4.70;;
6821;SDS011;3449;48.728;8.968;2023-04-06T13:42:17;7.33;;;4.80;;
6821;SDS011;3449;48.728;8.968;2023-04-06T13:44:44;7.60;;;5.30;;
6821;SDS011;3449;48.728;8.968;2023-04-06T13:47:12;7.97;;;4.77;;
6821;SDS011;3449;48.728;8.968;2023-04-06T13:49:40;7.57;;;4.80;;
6821;SDS011;3449;48.728;8.968;2023-04-06T13:52:08;6.90;;;4.33;;
6821;SDS011;3449;48.728;8.968;2023-04-06T13:54:36;5.80;;;3.87;;
6821;SDS011;3449;48.728;8.968;2023-04-06T13:57:03;9.43;;;4.20;;
6821;SDS011;3449;48.728;8.968;2023-04-06T13:59:33;5.80;;;4.23;;
6821;SDS011;3449;48.728;8.968;2023-04-06T14:02:00;7.43;;;4.80;;
6821;SDS011;3449;48.728;8.968;2023-04-06T14:04:27;8.50;;;4.60;;
6821;SDS011;3449;48.728;8.968;2023-04-06T14:06:55;7.03;;;4.53;;
6821;SDS011;3449;48.728;8.968;2023-04-06T14:09:23;6.80;;;4.40;;
6821;SDS011;3449;48.728;8.968;2023-04-06T14:11:50;8.50;;;4.53;;
6821;SDS011;3449;48.728;8.968;2023-04-06T14:14:17;7.10;;;4.80;;
6821;SDS011;3449;48.728;8.968;2023-04-06T14:16:44;6.60;;;4.60;;
6821;SDS011;3449;48.728;8.968;2023-04-06T14:19:12;6.67;;;4.23;;
6821;SDS011;3449;48.728;8.968;2023-04-06T14:21:40;6.20;;;4.27;;
6821;SDS011;3449;48.728;8.968;2023-04-06T14:24:08;6.73;;;4.20;;
6821;SDS011;3449;48.728;8.968;2023-04-06T14:26:37;5.27;;;4.30;;
6821;SDS011;3449;48.728;8.968;2023-04-06T14:29:06;5.40;;;4.37;;
6821;SDS011;3449;48.728;8.968;2023-04-06T14:31:33;8.33;;;4.50;;
6821;SDS011;3449;48.728;8.968;2023-04-06T14:34:00;5.40;;;3.97;;
6821;SDS011;3449;48.728;8.968;2023-04-06T14:36:28;6.87;;;4.93;;
6821;SDS011;3449;48.728;8.968;2023-04-06T14:39:01;7.73;;;4.83;;
6821;SDS011;3449;48.728;8.968;2023-04-06T14:41:29;5.63;;;4.00;;
6821;SDS011;3449;48.728;8.968;2023-04-06T14:43:58;8.83;;;4.30;;
6821;SDS011;3449;48.728;8.968;2023-04-06T14:46:25;5.73;;;3.90;;
6821;SDS011;3449;48.728;8.968;2023-04-06T14:48:53;6.93;;;5.07;;
6821;SDS011;3449;48.728;8.968;2023-04-06T14:51:21;8.77;;;3.77;;
6821;SDS011;3449;48.728;8.968;2023-04-06T14:53:48;7.80;;;4.87;;
6821;SDS011;3449;48.728;8.968;2023-04-06T14:56:18;5.57;;;4.13;;
6821;SDS011;3449;48.728;8.968;2023-04-06T14:58:46;12.00;;;4.40;;
6821;SDS011;3449;48.728;8.968;2023-04-06T15:01:14;8.47;;;4.60;;
6821;SDS011;3449;48.728;8.968;2023-04-06T15:03:41;6.20;;;4.10;;
6821;SDS011;3449;48.728;8.968;2023-04-06T15:06:11;4.80;;;4.07;;
6821;SDS011;3449;48.728;8.968;2023-04-06T15:08:40;4.90;;;4.20;;